Terminal Aerodrome Forecast
Issued by NWS Charleston, WV

Current Version | Previous Version | Graphics & Text | Print | Product List | Glossary On
Versions: 1 2 3 4 5 6 7 8 9 10 11 12 13 14 15 16 17 18 19 20 21 22 23
000
FTUS41 KRLX 241700
TAFBKW
TAF
KBKW 241720Z 2418/2518 VRB03KT P6SM BKN090
     FM242000 17004KT P6SM SCT100
     FM242300 14005KT P6SM SCT200
     FM250700 15009KT P6SM BKN180
     FM251300 16011G16KT 6SM SHRA BKN050
     FM251600 18013G19KT 4SM SHRA OVC030=

USA.gov is the U.S. government's official web portal to all federal, state and local government web resources and services.